首页
METAR-TAF:

METAR-TAF

机场 :

倫敦盧頓機場

卢顿, 英格兰

纬度: 51-52N, 经度: 000-22W, 海拔: 160米

当前天气观测

该预报发布于41分钟前的21:20 UTC
风速12节,风向
温度 1°C
湿度 86%
气压 1039 hPa
能见度10公里或以上
散云层高于4900英尺

METAR: EGGW 292120Z AUTO 01012KT 9999 SCT049 01/M01 Q1039

时间: 23:01 (22:01 UTC)

预报

该预报发布于5小时和0分钟前的17:01 UTC
预报有效从29日的 18点(UTC)到 30日的 18点(UTC)
风速20节,风向北转东北,有时为30节阵风
能见度10公里或以上
散云层高于3500英尺
成为
从 29日的 18点(UTC)到 29日的 21点(UTC)
风速12节,风向
短暂存在
从 29日的 18点(UTC)到 30日的 09点(UTC)
能見度: 8000
小阵雨
几率 30% :
短暂存在
从 29日的 21点(UTC)到 30日的 09点(UTC)
能見度: 4000
多云层高于800英尺
阵雨, 雪
成为
从 30日的 09点(UTC)到 30日的 12点(UTC)
风速16节,风向,有时为26节阵风
短暂存在
从 30日的 09点(UTC)到 30日的 18点(UTC)
能見度: 6000
多云层高于1000英尺
阵雨

TAF: EGGW 291701Z 2918/3018 02020G30KT 9999 SCT035 BECMG 2918/2921 01012KT TEMPO 2918/3009 8000 -SHRA PROB30 TEMPO 2921/3009 4000 SHRASN BKN008 BECMG 3009/3012 01016G26KT TEMPO 3009/3018 6000 SHRA BKN010

超过4000个机场的气象观测和天气预报(METAR&TAF报告)。

可查询的气象台以黄色和红色小点在地图上表示。

将鼠标移到小点上方,可查看气象台名称。

然后点击查看天气观测和预报。

如需切换地图:点击带黑十字的绿色按钮放大地图;点击带横线的绿色按钮缩小地图;或者点击绿色箭头查看邻近地区的地图。


METAR-TAF: